• Join FlightAware (Why Join?)
  • Login
  • US Flag 
06:14PM EDT


 

Airport Tracker/Info


-or-


 

Live Flight TrackerFlight Track Log ✈ DAL1803 ✈ 26-Sep-2013 ✈ KRDU - KATL

Flight Track Log - Related Links

Times and Time Zones

All times are in EDT time to prevent confusion due to time zone crossing. See the DAL1803 flight status page for this flight to view local times or setup timezone preferences in your user account.

Time Position Orientation Groundspeed Altitude Reporting Facility
EDT Latitude Longitude Course Direction KTS MPH feet Rate Location/Type
01:36PM 35.8989 -78.7717 258° West 190 219 1,400  Level Washington Center
01:37PM 35.9500 -78.7353 30° Northeast 236 272 3,000 2,220 Climbing Washington Center
01:38PM 36.0225 -78.7558 347° North 283 326 6,400 2,880 Climbing Washington Center
01:39PM 35.7379 -79.1692 262° West  Level Estimated
01:39PM 36.0494 -78.8419 291° West 283 326 9,400  Level Washington Center
01:40PM 35.6911 -79.2961 270° West  Level Estimated
01:40PM 36.0050 -78.9350 239° Southwest 254 292 11,200  Level Washington Center
01:41PM 35.6441 -79.4229 258° West  Level Estimated
01:41PM 35.9539 -79.0458 240° Southwest 306 352 12,700  Level Washington Center
01:42PM 35.8942 -79.1636 238° Southwest 375 432 15,300 2,580 Climbing Washington Center
01:43PM 35.8378 -79.2994 243° Southwest 407 468 17,800 2,400 Climbing Washington Center
01:45PM 35.8100 -79.5653 263° West 400 460 22,100 2,040 Climbing Atlanta Center
01:46PM 35.7853 -79.6947 257° West 406 467 23,700 1,380 Climbing Atlanta Center
01:47PM 35.7647 -79.8236 259° West 411 473 24,900 1,140 Climbing Atlanta Center
01:48PM 35.7406 -79.9683 258° West 422 486 26,000 1,320 Climbing Atlanta Center
01:49PM 35.7036 -80.1183 253° West 442 509 27,600 960 Climbing Atlanta Center
01:50PM 35.6564 -80.2792 250° West 447 514 28,000 180 Climbing Atlanta Center
01:51PM 35.6128 -80.4192 249° West 447 514 28,000  Level Atlanta Center
01:52PM 35.5747 -80.5458 250° West 447 514 28,000  Level Atlanta Center
01:53PM 35.5306 -80.6881 249° West 453 521 28,000  Level Atlanta Center
01:54PM 35.4864 -80.8303 249° West 453 521 28,000  Level Atlanta Center
01:55PM 35.4442 -80.9719 250° West 453 521 28,000  Level Atlanta Center
01:56PM 35.3936 -81.1267 248° West 453 521 28,000  Level Atlanta Center
01:57PM 35.3511 -81.2658 250° West 453 521 28,000  Level Atlanta Center
01:58PM 35.3083 -81.4072 250° West 453 521 28,000  Level Atlanta Center
01:59PM 35.2653 -81.5433 249° West 453 521 28,000  Level Atlanta Center
02:00PM 35.2219 -81.6844 249° West 447 514 28,000  Level Atlanta Center
02:01PM 35.1786 -81.8231 249° West 442 509 28,000  Level Atlanta Center
02:02PM 35.1411 -81.9433 249° West 437 503 28,000  Level Atlanta Center
02:03PM 35.0956 -82.0792 248° West 437 503 28,000  Level Atlanta Center
02:04PM 35.0497 -82.2172 248° West 437 503 28,000  Level Atlanta Center
02:05PM 35.0039 -82.3678 250° West 437 503 28,000  Level Atlanta Center
02:06PM 34.9575 -82.5031 247° West 437 503 28,000  Level Atlanta Center
02:07PM 34.9133 -82.6381 248° West 437 503 28,000  Level Atlanta Center
02:08PM 34.8689 -82.7756 249° West 437 503 28,000  Level Atlanta Center
02:09PM 34.8264 -82.9053 248° West 437 503 28,000 -240 Level Atlanta Center
02:10PM 34.7753 -83.0400 245° Southwest 437 503 27,600 -1,800 Descending Atlanta Center
02:11PM 34.6925 -83.1494 227° Southwest 447 514 24,500 -2,580 Descending Atlanta Center
02:12PM 34.6056 -83.2539 225° Southwest 441 507 22,500 -1,260 Descending Atlanta Center
02:13PM 34.5144 -83.3531 222° Southwest 441 507 22,000 -300 Descending Atlanta Center
02:14PM 34.4253 -83.4569 224° Southwest 446 513 22,000 -480 Level Atlanta Center
02:15PM 34.3442 -83.5481 223° Southwest 446 513 21,100 -1,680 Descending Atlanta Center
02:16PM 34.2592 -83.6442 223° Southwest 436 502 18,700 -2,460 Descending Atlanta Center
02:17PM 34.1781 -83.7400 224° Southwest 423 487 16,200 -2,400 Descending Atlanta Center
02:18PM 34.0947 -83.8306 222° Southwest 413 475 14,000 -1,860 Descending Atlanta Center
02:19PM 34.0333 -83.9000 223° Southwest 397 457 13,400 -960 Descending Atlanta TRACON
02:20PM 33.9500 -83.9833 220° Southwest 391 450 12,600 -780 Descending Atlanta TRACON
02:21PM 33.8667 -84.0500 214° Southwest 387 445 11,900 -300 Descending Atlanta TRACON
02:22PM 33.8167 -84.1333 234° Southwest 319 367 12,000  Climbing Atlanta TRACON
02:23PM 33.7667 -84.2333 239° Southwest 308 354 12,000 -240 Level Atlanta TRACON
02:24PM 33.7333 -84.3167 244° Southwest 302 348 11,600 -1,080 Descending Atlanta TRACON
02:25PM 33.7333 -84.4167 270° West 301 346 9,900 -1,620 Descending Atlanta TRACON
02:26PM 33.7333 -84.5167 270° West 288 331 8,400 -1,560 Descending Atlanta TRACON
02:27PM 33.7333 -84.6000 270° West 278 320 6,800 -1,500 Descending Atlanta TRACON
02:28PM 33.7333 -84.7000 270° West 270 311 5,400 -900 Descending Atlanta TRACON
02:29PM 33.7333 -84.7833 270° West 231 266 5,000 -240 Descending Atlanta TRACON
02:30PM 33.7000 -84.8167 220° Southwest 212 244 5,000 -540 Level Atlanta TRACON
02:31PM 33.6500 -84.7833 151° Southeast 187 215 4,000 -540 Descending Atlanta TRACON
02:32PM 33.6500 -84.7333 90° East 167 192 4,000  Level Atlanta TRACON
02:33PM 33.6500 -84.6833 90° East 167 192 4,000 -60 Level Atlanta TRACON
02:34PM 33.6500 -84.6167 90° East 168 193 3,900 -540 Descending Atlanta TRACON
02:35PM 33.6500 -84.5667 90° East 173 199 3,000 -840 Descending Atlanta TRACON
02:36PM 33.6500 -84.5167 90° East 150 173 2,300 -780 Descending Atlanta TRACON
02:37PM 33.6500 -84.4667 90° East 147 169 1,500 -840 Descending Atlanta TRACON